Time;durP1;ratioP1;P1;durP2;ratioP2;P2;SDS_P1;SDS_P2;PMS_P1;PMS_P2;Temp;Humidity;BMP_temperature;BMP_pressure;BME280_temperature;BME280_humidity;BME280_pressure;Samples;Min_cycle;Max_cycle;Signal;HPM_P1;HPM_P2
2022/05/30 00:00:32;;;;;;;14.20;6.10;;;;;;;14.03;67.39;99476.91;25129;1315;3026842;-72
2022/05/30 00:03:01;;;;;;;19.00;6.60;;;;;;;13.95;67.69;99476.10;25187;1315;3054236;-68
2022/05/30 00:05:32;;;;;;;23.00;7.70;;;;;;;13.89;67.55;99486.72;25177;1315;3029425;-68
2022/05/30 00:08:03;;;;;;;12.70;5.00;;;;;;;13.86;68.00;99482.58;25136;1315;3027084;-70
2022/05/30 00:10:36;;;;;;;20.30;6.00;;;;;;;14.38;67.37;99475.38;25092;1315;3049972;-64
2022/05/30 00:13:06;;;;;;;18.00;5.30;;;;;;;14.87;66.02;99476.41;25131;1315;3026857;-75
2022/05/30 00:15:37;;;;;;;17.30;6.20;;;;;;;14.95;65.67;99476.98;25177;1315;3028027;-70
2022/05/30 00:18:09;;;;;;;22.50;6.70;;;;;;;14.81;65.60;99479.85;25157;1315;3026454;-71
2022/05/30 00:20:42;;;;;;;19.90;6.80;;;;;;;14.56;66.49;99482.13;25169;1315;3052717;-74
2022/05/30 00:23:12;;;;;;;19.70;6.70;;;;;;;14.35;67.17;99482.65;25101;1315;3053871;-69
2022/05/30 00:25:42;;;;;;;17.90;7.10;;;;;;;14.19;67.69;99479.39;25170;1315;3027646;-69
2022/05/30 00:28:11;;;;;;;22.10;7.80;;;;;;;14.07;67.83;99478.95;25175;1315;3027453;-71
2022/05/30 00:30:40;;;;;;;17.80;7.40;;;;;;;13.93;68.14;99476.29;25150;1315;3027065;-69
2022/05/30 00:33:11;;;;;;;21.60;7.10;;;;;;;13.78;68.94;99473.27;25170;1315;3029986;-71
2022/05/30 00:35:40;;;;;;;24.00;8.30;;;;;;;13.69;68.89;99472.41;25163;1313;3026653;-71
2022/05/30 00:38:10;;;;;;;19.90;7.50;;;;;;;13.63;69.09;99463.19;25080;1315;3026355;-69
2022/05/30 00:40:39;;;;;;;24.80;6.70;;;;;;;13.59;69.14;99451.30;25157;1315;3051063;-71
2022/05/30 00:43:27;;;;;;;18.20;5.90;;;;;;;14.09;68.21;99442.50;25113;1315;3027192;-72
2022/05/30 00:45:59;;;;;;;18.30;6.80;;;;;;;14.64;66.95;99442.71;25144;1315;3052847;-71
2022/05/30 00:48:31;;;;;;;20.40;7.40;;;;;;;14.71;66.19;99443.59;25177;1315;3026526;-67
2022/05/30 00:51:02;;;;;;;21.70;7.80;;;;;;;14.50;66.93;99438.83;25176;1315;3026830;-74
2022/05/30 00:53:33;;;;;;;27.40;8.40;;;;;;;14.31;67.11;99438.20;25122;1315;3027140;-69
2022/05/30 00:56:04;;;;;;;22.30;8.20;;;;;;;14.08;67.95;99433.73;25063;1316;3028025;-71
2022/05/30 00:58:34;;;;;;;22.90;8.50;;;;;;;13.95;68.13;99430.33;25074;1318;3026500;-69
2022/05/30 01:01:04;;;;;;;26.30;8.40;;;;;;;13.85;68.26;99429.30;25087;1318;3027220;-72
2022/05/30 01:06:33;;;;;;;26.70;9.00;;;;;;;13.60;69.09;99435.34;25137;1315;3052516;-71
2022/05/30 01:09:08;;;;;;;18.00;6.80;;;;;;;13.55;69.78;99432.41;25150;1315;3053441;-71
2022/05/30 01:11:52;;;;;;;19.90;6.20;;;;;;;14.09;68.83;99427.65;25126;1315;3051948;-69
2022/05/30 01:14:21;;;;;;;24.60;7.50;;;;;;;14.60;67.21;99424.20;25125;1315;3067334;-71
2022/05/30 01:16:51;;;;;;;24.00;8.50;;;;;;;14.63;66.73;99420.41;25139;1315;3026459;-72
2022/05/30 01:19:43;;;;;;;25.40;7.70;;;;;;;14.51;66.94;99413.59;25148;1315;3026660;-75
2022/05/30 01:22:54;;;;;;;26.80;8.80;;;;;;;14.22;67.55;99408.02;25145;1315;3071269;-72
2022/05/30 01:25:27;;;;;;;27.20;9.10;;;;;;;13.88;68.52;99413.80;25156;1315;3049122;-72
2022/05/30 01:28:20;;;;;;;21.60;8.50;;;;;;;13.69;68.98;99425.95;25141;1315;3052727;-70
2022/05/30 01:30:50;;;;;;;25.20;8.70;;;;;;;13.50;69.73;99424.88;25141;1315;3054720;-74
2022/05/30 01:33:19;;;;;;;32.90;9.00;;;;;;;13.38;69.78;99418.69;25112;1315;3028962;-71
2022/05/30 01:35:49;;;;;;;19.40;6.40;;;;;;;13.34;70.07;99418.77;25177;1315;3026368;-69
2022/05/30 01:38:20;;;;;;;21.20;6.70;;;;;;;13.82;69.08;99418.65;25159;1314;3026871;-68
2022/05/30 01:40:51;;;;;;;18.80;7.30;;;;;;;14.33;67.88;99415.50;25143;1315;3026828;-66
2022/05/30 01:43:20;;;;;;;18.40;6.90;;;;;;;14.39;67.65;99416.45;25093;1315;3027063;-70
2022/05/30 01:45:52;;;;;;;19.80;9.10;;;;;;;14.26;67.49;99416.36;25136;1315;3052703;-72
2022/05/30 01:48:21;;;;;;;21.40;9.00;;;;;;;14.06;68.01;99420.33;25116;1315;3026695;-70
2022/05/30 01:50:50;;;;;;;22.70;9.00;;;;;;;13.91;68.36;99425.04;25114;1315;3049666;-70
2022/05/30 01:53:27;;;;;;;25.60;8.80;;;;;;;13.75;68.73;99427.80;25121;1315;3056094;-66
2022/05/30 01:56:15;;;;;;;33.10;9.40;;;;;;;13.58;69.41;99431.62;25150;1315;3053950;-65
2022/05/30 01:58:44;;;;;;;24.50;9.10;;;;;;;13.48;69.51;99430.66;25068;1315;3026408;-72
2022/05/30 02:01:44;;;;;;;24.10;9.50;;;;;;;13.40;69.84;99427.52;25165;1315;3051757;-72
2022/05/30 02:04:15;;;;;;;22.90;7.20;;;;;;;13.35;70.15;99429.14;25123;1315;3026663;-72
2022/05/30 02:06:44;;;;;;;19.50;7.30;;;;;;;13.88;69.28;99436.50;25266;1315;3026915;-63
2022/05/30 02:09:14;;;;;;;25.40;8.80;;;;;;;14.48;67.60;99433.69;25534;1315;3026882;-63
2022/05/30 02:11:44;;;;;;;21.70;8.10;;;;;;;14.63;66.70;99431.67;25557;1315;3026516;-63
2022/05/30 02:14:28;;;;;;;22.80;9.40;;;;;;;14.59;66.47;99433.27;25544;1315;3053073;-72
2022/05/30 02:17:04;;;;;;;26.70;10.00;;;;;;;14.36;66.76;99429.31;25145;1315;3027408;-70
2022/05/30 02:19:39;;;;;;;26.80;10.10;;;;;;;14.20;67.23;99437.40;25148;1315;3052111;-70
2022/05/30 02:22:13;;;;;;;30.50;9.40;;;;;;;14.06;67.49;99439.89;25141;1315;3054218;-69
2022/05/30 02:24:42;;;;;;;25.50;10.10;;;;;;;13.92;67.79;99443.19;25150;1315;3028802;-65
2022/05/30 02:27:15;;;;;;;28.40;11.40;;;;;;;13.87;67.75;99444.86;25108;1316;3026176;-68
2022/05/30 02:29:45;;;;;;;27.20;10.30;;;;;;;13.79;68.08;99447.50;25132;1315;3027022;-67
2022/05/30 02:32:16;;;;;;;27.40;10.80;;;;;;;13.68;68.47;99452.73;25152;1315;3026653;-70
2022/05/30 02:37:33;;;;;;;25.40;9.10;;;;;;;14.11;68.00;99448.11;25125;1315;3051879;-70
2022/05/30 02:40:25;;;;;;;25.00;10.20;;;;;;;14.54;66.26;99449.80;25040;1318;3052146;-69
2022/05/30 02:43:14;;;;;;;27.00;10.20;;;;;;;14.58;66.09;99449.18;25091;1315;3055236;-70
2022/05/30 02:45:44;;;;;;;26.70;9.80;;;;;;;14.37;66.70;99450.73;25149;1315;3026617;-71
2022/05/30 02:48:14;;;;;;;29.50;10.30;;;;;;;14.21;66.88;99456.34;25122;1315;3026681;-70
2022/05/30 02:50:45;;;;;;;21.90;10.10;;;;;;;14.04;67.42;99459.08;25134;1315;3027367;-68
2022/05/30 02:53:15;;;;;;;28.80;10.50;;;;;;;13.91;67.91;99466.72;25128;1315;3026604;-70
2022/05/30 02:56:16;;;;;;;28.60;9.40;;;;;;;13.83;68.09;99473.29;25142;1318;3070928;-71
2022/05/30 02:58:46;;;;;;;36.70;10.80;;;;;;;13.72;68.63;99472.52;25079;1318;3026473;-71
2022/05/30 03:01:16;;;;;;;27.20;10.30;;;;;;;13.67;69.03;99478.71;25018;1318;3026002;-68
2022/05/30 03:03:47;;;;;;;18.20;8.40;;;;;;;13.65;69.41;99475.17;25050;1318;3028329;-72
2022/05/30 03:06:16;;;;;;;24.20;8.60;;;;;;;14.25;67.76;99466.31;25063;1318;3026736;-68
2022/05/30 03:08:45;;;;;;;25.20;9.50;;;;;;;14.82;65.85;99468.10;25006;1318;3026534;-71
2022/05/30 03:11:14;;;;;;;29.90;10.20;;;;;;;14.92;65.33;99471.39;25159;1315;3054988;-68
2022/05/30 03:13:44;;;;;;;30.00;10.80;;;;;;;14.83;65.35;99469.30;25056;1318;3026999;-68
2022/05/30 03:16:13;;;;;;;30.00;9.70;;;;;;;14.65;65.80;99466.77;25010;1317;3026788;-70
2022/05/30 03:18:43;;;;;;;21.70;10.50;;;;;;;14.54;66.24;99464.61;25079;1316;3026984;-74
2022/05/30 03:21:13;;;;;;;24.70;10.90;;;;;;;14.46;66.26;99459.41;25058;1318;3026853;-71
2022/05/30 03:23:42;;;;;;;32.30;10.30;;;;;;;14.27;66.77;99461.68;25086;1318;3051431;-66
2022/05/30 03:26:16;;;;;;;30.60;11.00;;;;;;;14.14;67.62;99462.19;25019;1318;3055819;-68
2022/05/30 03:28:46;;;;;;;31.70;11.40;;;;;;;14.04;67.61;99458.67;25105;1315;3026322;-72
2022/05/30 03:31:15;;;;;;;32.80;11.40;;;;;;;13.98;67.82;99461.23;25083;1315;3027133;-69
2022/05/30 03:33:45;;;;;;;28.10;10.90;;;;;;;13.92;67.99;99465.38;25047;1315;3028002;-72
2022/05/30 03:36:26;;;;;;;30.30;11.50;;;;;;;13.85;68.58;99472.12;25133;1315;3028256;-70
2022/05/30 03:39:14;;;;;;;30.50;8.80;;;;;;;13.89;68.66;99473.74;25097;1313;3052238;-66
2022/05/30 03:42:01;;;;;;;30.60;9.60;;;;;;;14.68;66.53;99462.98;25109;1315;3056169;-72
2022/05/30 03:44:44;;;;;;;26.40;10.90;;;;;;;15.19;64.60;99463.64;25049;1315;3049759;-69
2022/05/30 03:47:13;;;;;;;27.80;9.80;;;;;;;15.25;64.35;99461.92;25094;1315;3026290;-70
2022/05/30 03:49:42;;;;;;;28.80;10.40;;;;;;;15.10;64.18;99459.42;25148;1315;3056164;-71
2022/05/30 03:52:11;;;;;;;30.80;11.00;;;;;;;14.96;64.73;99451.88;25050;1318;3028510;-68
2022/05/30 03:54:41;;;;;;;32.20;11.30;;;;;;;14.82;65.12;99444.36;25087;1315;3054484;-72
2022/05/30 03:57:10;;;;;;;31.30;11.40;;;;;;;14.71;65.47;99443.06;25069;1315;3027061;-71
2022/05/30 03:59:39;;;;;;;33.40;11.70;;;;;;;14.62;66.06;99440.02;25063;1316;3051020;-70
2022/05/30 04:02:10;;;;;;;29.60;11.90;;;;;;;14.64;65.87;99436.18;25073;1315;3027790;-68
2022/05/30 04:04:40;;;;;;;42.50;12.70;;;;;;;14.64;65.95;99436.20;25150;1315;3029987;-71
2022/05/30 04:07:09;;;;;;;29.50;11.30;;;;;;;14.61;66.15;99438.02;25026;1315;3026373;-68
2022/05/30 04:09:55;;;;;;;34.40;12.20;;;;;;;14.57;66.12;99435.15;25109;1315;3052692;-69
2022/05/30 04:13:05;;;;;;;33.10;12.50;;;;;;;14.46;66.78;99433.17;24987;1322;3058673;-67
2022/05/30 04:15:49;;;;;;;30.50;12.40;;;;;;;14.47;66.74;99427.23;24977;1321;3049596;-67
2022/05/30 04:18:19;;;;;;;28.00;11.70;;;;;;;14.52;66.47;99423.88;25012;1317;3026386;-69
2022/05/30 04:20:48;;;;;;;33.70;12.60;;;;;;;14.62;65.89;99424.73;25086;1315;3026699;-71
2022/05/30 04:23:18;;;;;;;27.00;9.90;;;;;;;14.60;66.22;99419.38;25164;1315;3048721;-68
2022/05/30 04:25:55;;;;;;;28.80;10.30;;;;;;;15.15;65.27;99419.11;25134;1315;3054774;-69
2022/05/30 04:28:25;;;;;;;32.50;11.90;;;;;;;15.80;63.42;99412.84;25128;1315;3027974;-72
2022/05/30 04:31:12;;;;;;;30.90;12.00;;;;;;;15.95;62.75;99415.64;25086;1315;3071274;-68
2022/05/30 04:33:42;;;;;;;32.80;12.00;;;;;;;15.86;62.72;99416.41;25045;1318;3026468;-70
2022/05/30 04:36:13;;;;;;;32.80;13.10;;;;;;;15.80;63.02;99415.14;25109;1315;3026748;-68
2022/05/30 04:38:44;;;;;;;33.70;12.60;;;;;;;15.72;63.12;99418.21;25099;1315;3027672;-69
2022/05/30 04:41:32;;;;;;;36.30;13.60;;;;;;;15.65;63.50;99414.55;25096;1315;3057143;-66
2022/05/30 04:44:20;;;;;;;35.10;12.70;;;;;;;15.57;64.00;99415.02;25129;1315;3054068;-69
2022/05/30 04:47:18;;;;;;;37.20;13.40;;;;;;;15.58;64.26;99416.03;25132;1315;3055396;-70
2022/05/30 04:49:50;;;;;;;35.10;12.80;;;;;;;15.57;64.29;99418.05;25132;1318;3026584;-68
2022/05/30 04:52:20;;;;;;;36.30;14.00;;;;;;;15.61;64.23;99423.05;25151;1315;3026867;-69
2022/05/30 04:54:49;;;;;;;35.30;12.30;;;;;;;15.62;64.61;99427.88;25156;1315;3027189;-72
2022/05/30 04:57:30;;;;;;;37.70;13.90;;;;;;;15.60;64.74;99427.52;25049;1315;3054819;-72
2022/05/30 05:00:20;;;;;;;33.00;13.80;;;;;;;15.63;64.70;99429.17;25155;1315;3054696;-71
2022/05/30 05:02:53;;;;;;;39.90;15.20;;;;;;;15.66;64.61;99429.72;25063;1316;3026795;-69
2022/05/30 05:05:22;;;;;;;38.20;14.20;;;;;;;15.73;64.65;99435.27;25107;1315;3026780;-67
2022/05/30 05:08:16;;;;;;;38.20;14.80;;;;;;;15.76;64.45;99436.41;25106;1315;3055586;-68
2022/05/30 05:11:14;;;;;;;32.50;15.60;;;;;;;15.81;64.61;99431.84;25090;1315;3053715;-70
2022/05/30 05:14:01;;;;;;;40.10;14.20;;;;;;;15.89;64.52;99429.04;25042;1315;3069884;-69
2022/05/30 05:16:48;;;;;;;33.10;14.10;;;;;;;16.05;64.05;99430.52;25121;1315;3049504;-73
2022/05/30 05:19:19;;;;;;;47.20;15.80;;;;;;;16.11;63.71;99433.41;25129;1315;3028548;-70
2022/05/30 05:21:48;;;;;;;34.50;15.40;;;;;;;16.16;63.92;99436.31;25056;1315;3026555;-72
2022/05/30 05:24:17;;;;;;;45.30;14.90;;;;;;;16.22;63.81;99438.12;25128;1315;3051557;-68
2022/05/30 05:27:05;;;;;;;40.00;14.50;;;;;;;16.27;63.93;99441.77;25123;1315;3053802;-72
2022/05/30 05:29:35;;;;;;;41.70;14.60;;;;;;;16.34;63.67;99444.91;25117;1315;3026678;-71
2022/05/30 05:32:07;;;;;;;43.40;14.80;;;;;;;16.47;63.28;99441.52;25104;1315;3026495;-69
2022/05/30 05:34:35;;;;;;;37.40;15.70;;;;;;;16.56;63.41;99442.65;25110;1315;3029569;-72
2022/05/30 05:37:05;;;;;;;41.70;16.50;;;;;;;16.61;63.27;99443.26;25097;1315;3026992;-67
2022/05/30 05:39:38;;;;;;;35.40;16.00;;;;;;;16.74;63.18;99445.72;25120;1315;3054894;-68
2022/05/30 05:42:15;;;;;;;36.30;15.70;;;;;;;16.87;62.86;99450.94;25081;1316;3071726;-67
2022/05/30 05:44:45;;;;;;;40.00;16.30;;;;;;;17.00;62.52;99448.98;25126;1315;3028106;-69
2022/05/30 05:47:14;;;;;;;38.80;17.00;;;;;;;17.12;62.14;99449.57;25026;1318;3026344;-66
2022/05/30 05:49:43;;;;;;;41.10;17.00;;;;;;;17.19;61.82;99447.52;25070;1318;3070570;-68
2022/05/30 05:52:13;;;;;;;39.70;17.70;;;;;;;17.26;61.86;99452.90;25119;1316;3029497;-71
2022/05/30 05:54:42;;;;;;;39.10;16.40;;;;;;;17.35;61.55;99451.24;25098;1318;3028048;-70
2022/05/30 05:57:12;;;;;;;42.20;17.80;;;;;;;17.41;61.12;99440.73;25063;1318;3070204;-69
2022/05/30 05:59:43;;;;;;;42.20;16.50;;;;;;;17.51;61.07;99441.64;25098;1318;3026746;-74
2022/05/30 06:02:13;;;;;;;38.70;15.90;;;;;;;17.61;60.79;99432.92;25073;1318;3026170;-70
2022/05/30 06:04:43;;;;;;;47.20;19.10;;;;;;;17.67;60.77;99437.40;25114;1315;3068728;-71
2022/05/30 06:07:32;;;;;;;42.00;17.60;;;;;;;17.79;60.15;99436.51;25071;1318;3051674;-72
2022/05/30 06:10:12;;;;;;;38.20;16.90;;;;;;;17.94;59.86;99428.60;25124;1315;3051925;-68
2022/05/30 06:13:10;;;;;;;44.60;17.60;;;;;;;18.03;59.98;99423.30;25091;1315;3051295;-68
2022/05/30 06:15:39;;;;;;;40.90;17.10;;;;;;;18.08;60.07;99423.36;25096;1315;3026572;-68
2022/05/30 06:18:13;;;;;;;43.30;17.00;;;;;;;18.16;59.60;99427.23;25018;1318;3049881;-71
2022/05/30 06:20:44;;;;;;;49.10;17.10;;;;;;;18.29;59.65;99426.06;25147;1318;3026577;-70
2022/05/30 06:23:14;;;;;;;38.50;16.40;;;;;;;18.41;59.27;99428.27;25124;1316;3028306;-70
2022/05/30 06:26:22;;;;;;;37.80;15.40;;;;;;;18.55;58.94;99422.89;24902;1323;3068976;-70
2022/05/30 06:29:20;;;;;;;37.00;14.30;;;;;;;18.71;58.84;99416.30;24826;1324;3052113;-71
2022/05/30 06:31:49;;;;;;;36.90;15.60;;;;;;;18.82;58.20;99419.63;24958;1318;3026100;-68
2022/05/30 06:34:19;;;;;;;34.80;14.80;;;;;;;18.90;57.82;99420.34;25122;1318;3070838;-71
2022/05/30 06:36:48;;;;;;;41.10;14.30;;;;;;;18.96;57.96;99415.10;25083;1319;3026549;-67
2022/05/30 06:39:18;;;;;;;40.20;15.50;;;;;;;19.04;57.76;99419.38;25111;1318;3027257;-69
2022/05/30 06:42:13;;;;;;;45.40;15.90;;;;;;;19.10;57.54;99424.91;25094;1316;3054879;-72
2022/05/30 06:45:02;;;;;;;34.80;14.90;;;;;;;19.21;57.59;99427.65;25019;1318;3058868;-71
2022/05/30 06:47:50;;;;;;;33.30;15.20;;;;;;;19.35;57.23;99431.94;25111;1318;3050826;-68
2022/05/30 06:50:54;;;;;;;43.70;15.10;;;;;;;19.46;57.03;99429.48;25033;1318;3055160;-67
2022/05/30 06:53:23;;;;;;;34.40;15.50;;;;;;;19.54;56.41;99426.56;25091;1318;3026639;-71
2022/05/30 06:55:53;;;;;;;30.90;14.30;;;;;;;19.66;56.27;99421.51;25047;1318;3054025;-67
2022/05/30 06:58:22;;;;;;;36.40;14.90;;;;;;;19.79;56.14;99422.44;25120;1318;3026476;-69
2022/05/30 07:00:52;;;;;;;41.50;16.60;;;;;;;19.93;56.13;99422.14;25125;1316;3026771;-67
2022/05/30 07:03:24;;;;;;;35.40;15.70;;;;;;;20.07;55.61;99416.18;25159;1315;3026718;-73
2022/05/30 07:06:15;;;;;;;36.00;15.50;;;;;;;20.24;55.10;99414.59;25224;1315;3052960;-64
2022/05/30 07:09:08;;;;;;;27.00;14.20;;;;;;;20.34;54.40;99417.52;25575;1315;3051966;-64
2022/05/30 07:11:51;;;;;;;37.10;14.70;;;;;;;20.45;54.27;99420.68;25494;1315;3056827;-65
2022/05/30 07:14:22;;;;;;;40.20;15.10;;;;;;;20.56;54.13;99421.11;25489;1316;3026674;-68
2022/05/30 07:16:51;;;;;;;41.50;14.30;;;;;;;20.65;53.53;99419.65;25024;1318;3026537;-73
2022/05/30 07:19:20;;;;;;;37.00;14.60;;;;;;;20.76;53.32;99422.47;25134;1315;3054136;-69
2022/05/30 07:22:04;;;;;;;41.30;14.70;;;;;;;20.89;52.85;99428.46;25122;1315;3056636;-74
2022/05/30 07:24:52;;;;;;;34.90;13.90;;;;;;;21.03;52.84;99422.38;25143;1318;3049403;-65
2022/05/30 07:27:53;;;;;;;31.90;13.30;;;;;;;21.20;52.80;99428.46;25082;1315;3055872;-70
2022/05/30 07:31:04;;;;;;;33.70;13.80;;;;;;;21.42;52.20;99431.83;24972;1321;3054957;-68
2022/05/30 07:33:52;;;;;;;38.50;13.10;;;;;;;21.54;51.53;99429.64;25101;1315;3071939;-68
2022/05/30 07:36:40;;;;;;;28.60;13.00;;;;;;;21.62;50.35;99430.62;25087;1315;3051837;-68
2022/05/30 07:39:09;;;;;;;28.40;13.30;;;;;;;21.66;50.51;99430.16;25096;1315;3026602;-69
2022/05/30 07:41:58;;;;;;;32.40;12.10;;;;;;;21.86;49.96;99433.58;25024;1316;3072875;-70
2022/05/30 07:44:30;;;;;;;28.00;11.40;;;;;;;22.04;49.26;99432.99;25176;1315;3026103;-67
2022/05/30 07:47:18;;;;;;;28.80;10.60;;;;;;;22.29;49.04;99431.58;24997;1318;3055658;-69
2022/05/30 07:50:02;;;;;;;27.00;11.70;;;;;;;22.47;48.11;99430.42;25073;1319;3052813;-64
2022/05/30 07:52:56;;;;;;;24.80;9.40;;;;;;;22.63;47.74;99430.07;25079;1315;3056822;-68
2022/05/30 07:55:44;;;;;;;22.70;9.20;;;;;;;22.69;47.09;99424.77;25096;1318;3050423;-67
2022/05/30 07:58:14;;;;;;;18.80;8.20;;;;;;;22.79;45.71;99419.00;25117;1314;3026362;-67
2022/05/30 08:00:44;;;;;;;25.40;8.90;;;;;;;22.81;45.16;99416.11;25092;1315;3026909;-67
2022/05/30 08:03:16;;;;;;;21.90;9.10;;;;;;;22.89;46.17;99415.01;25139;1315;3027566;-68
2022/05/30 08:06:07;;;;;;;25.60;9.00;;;;;;;22.98;45.03;99412.63;25108;1315;3048288;-70
2022/05/30 08:09:14;;;;;;;21.10;9.40;;;;;;;23.05;44.56;99413.97;24826;1324;3054855;-67
2022/05/30 08:12:01;;;;;;;28.50;9.00;;;;;;;23.20;44.57;99403.14;24915;1325;3054971;-67
2022/05/30 08:14:50;;;;;;;18.60;8.40;;;;;;;23.35;44.19;99403.94;25046;1319;3058968;-67
2022/05/30 08:17:19;;;;;;;24.90;8.50;;;;;;;23.49;44.22;99404.98;25096;1318;3029468;-62
2022/05/30 08:19:49;;;;;;;15.90;7.60;;;;;;;23.65;43.29;99401.02;25103;1316;3054709;-65
2022/05/30 08:22:18;;;;;;;18.60;8.60;;;;;;;23.76;42.62;99402.80;25083;1315;3027969;-70
2022/05/30 08:24:53;;;;;;;18.70;7.70;;;;;;;23.90;42.80;99401.37;25129;1316;3055197;-70
2022/05/30 08:27:24;;;;;;;20.60;8.40;;;;;;;24.04;42.30;99399.14;25057;1315;3055848;-66
2022/05/30 08:29:57;;;;;;;24.00;7.50;;;;;;;24.11;42.01;99397.42;25021;1318;3026167;-68
2022/05/30 08:32:36;;;;;;;19.10;7.70;;;;;;;24.16;41.58;99395.39;24953;1318;3026488;-65
2022/05/30 08:35:24;;;;;;;20.20;7.50;;;;;;;24.19;41.01;99389.86;25007;1315;3052545;-65
2022/05/30 08:37:57;;;;;;;20.20;7.10;;;;;;;24.28;41.20;99383.05;25085;1318;3026738;-62
2022/05/30 08:43:29;;;;;;;13.00;5.70;;;;;;;24.45;39.87;99364.39;25097;1315;3049084;-73
2022/05/30 08:46:41;;;;;;;15.40;6.30;;;;;;;24.59;39.77;99363.83;25070;1318;3054652;-66
2022/05/30 08:49:14;;;;;;;16.40;6.30;;;;;;;24.73;39.56;99366.39;25038;1316;3053702;-62
2022/05/30 08:52:10;;;;;;;22.70;6.10;;;;;;;24.85;39.69;99373.59;25098;1315;3026923;-69
2022/05/30 08:55:02;;;;;;;16.30;5.50;;;;;;;24.91;38.99;99375.82;25018;1316;3052105;-73
2022/05/30 08:57:57;;;;;;;14.80;5.10;;;;;;;24.93;38.52;99370.23;25070;1316;3055407;-69
2022/05/30 09:00:45;;;;;;;17.60;5.80;;;;;;;24.93;38.23;99369.91;25097;1315;3053858;-67
2022/05/30 09:03:43;;;;;;;15.80;5.20;;;;;;;25.04;38.00;99372.32;25123;1315;3071379;-65
2022/05/30 09:06:19;;;;;;;20.70;5.00;;;;;;;25.13;37.93;99377.09;25096;1315;3051433;-72
2022/05/30 09:08:55;;;;;;;16.60;5.20;;;;;;;25.32;37.95;99375.16;25085;1316;3053202;-62
2022/05/30 09:11:48;;;;;;;11.70;4.60;;;;;;;25.44;37.10;99378.34;25092;1315;3055177;-64
2022/05/30 09:14:35;;;;;;;11.00;5.00;;;;;;;25.64;37.24;99372.78;25053;1318;3056810;-68
2022/05/30 09:17:09;;;;;;;13.40;5.40;;;;;;;25.82;36.56;99368.91;25154;1315;3052797;-65
2022/05/30 09:19:41;;;;;;;11.40;4.50;;;;;;;25.96;36.24;99356.60;24980;1319;3052271;-69
2022/05/30 09:22:10;;;;;;;11.60;4.50;;;;;;;26.01;36.54;99358.41;25093;1316;3026925;-73
2022/05/30 09:27:40;;;;;;;16.20;5.30;;;;;;;26.16;36.13;99348.56;25050;1315;3050057;-64
2022/05/30 09:30:52;;;;;;;11.60;4.70;;;;;;;26.17;36.38;99347.09;25079;1315;3053827;-64
2022/05/30 09:33:46;;;;;;;10.20;4.40;;;;;;;26.20;36.41;99349.45;24996;1315;3054992;-62
2022/05/30 09:36:49;;;;;;;12.60;5.10;;;;;;;26.35;36.63;99344.86;25058;1313;3059388;-64
2022/05/30 09:39:47;;;;;;;10.20;4.70;;;;;;;26.55;36.22;99341.64;25004;1315;3054186;-62
2022/05/30 09:42:33;;;;;;;13.30;4.70;;;;;;;26.70;36.11;99339.54;25071;1315;3026808;-62
2022/05/30 09:45:15;;;;;;;12.20;5.30;;;;;;;26.87;35.88;99338.15;25044;1315;3053676;-66
2022/05/30 09:48:12;;;;;;;14.40;5.00;;;;;;;26.99;35.37;99333.70;25054;1316;3071629;-70
2022/05/30 09:50:54;;;;;;;13.00;5.30;;;;;;;26.99;35.20;99334.70;25071;1315;3049280;-65
2022/05/30 09:53:36;;;;;;;12.40;5.50;;;;;;;27.04;35.01;99335.50;25094;1315;3026820;-66
2022/05/30 09:56:06;;;;;;;15.70;5.30;;;;;;;27.10;35.00;99340.31;25092;1316;3054920;-65
2022/05/30 09:58:42;;;;;;;16.50;4.70;;;;;;;27.24;34.74;99333.01;25089;1316;3026318;-65
2022/05/30 10:01:27;;;;;;;13.90;5.10;;;;;;;27.34;34.63;99333.73;25053;1315;3049505;-64
2022/05/30 10:04:13;;;;;;;20.10;5.30;;;;;;;27.39;34.66;99330.61;25089;1315;3026535;-66
2022/05/30 10:07:16;;;;;;;15.30;5.10;;;;;;;27.47;34.51;99334.63;25032;1316;3054568;-68
2022/05/30 10:09:54;;;;;;;15.20;5.20;;;;;;;27.58;34.19;99337.66;25018;1315;3068359;-64
2022/05/30 10:12:33;;;;;;;16.50;5.00;;;;;;;27.66;34.41;99339.70;25104;1315;3049734;-62
2022/05/30 10:15:23;;;;;;;17.40;4.80;;;;;;;27.72;33.54;99335.21;25016;1318;3053508;-62
2022/05/30 10:17:58;;;;;;;7.80;3.80;;;;;;;27.72;32.82;99331.11;25009;1316;3053294;-62
2022/05/30 10:20:49;;;;;;;11.80;3.80;;;;;;;27.64;32.85;99334.55;25036;1317;3029000;-60
2022/05/30 10:30:52;;;;;;;15.70;5.00;;;;;;;27.56;33.57;99358.88;25062;1318;3054442;-64
2022/05/30 10:34:01;;;;;;;10.20;4.40;;;;;;;27.68;33.52;99354.56;25022;1315;3071450;-62
2022/05/30 10:36:54;;;;;;;10.40;4.50;;;;;;;27.78;33.77;99348.33;24988;1318;3049439;-62
2022/05/30 10:39:29;;;;;;;12.30;4.40;;;;;;;27.87;33.59;99341.02;25025;1318;3054026;-63
2022/05/30 10:42:08;;;;;;;11.70;5.00;;;;;;;27.89;33.05;99343.21;25071;1315;3053557;-63
2022/05/30 10:44:39;;;;;;;12.50;4.60;;;;;;;27.82;33.36;99341.43;25099;1315;3055697;-61
2022/05/30 10:47:22;;;;;;;10.60;4.90;;;;;;;27.76;33.60;99338.80;25111;1315;3026538;-63
2022/05/30 10:50:42;;;;;;;14.10;5.40;;;;;;;27.69;33.68;99333.73;24947;1316;3055787;-63
2022/05/30 10:53:42;;;;;;;18.40;5.10;;;;;;;27.62;34.12;99328.09;25079;1315;3052684;-64
2022/05/30 10:56:27;;;;;;;12.80;4.80;;;;;;;27.57;33.87;99324.47;25168;1315;3071618;-64
2022/05/30 10:59:19;;;;;;;11.50;5.30;;;;;;;27.61;33.76;99317.11;25079;1315;3051890;-68
2022/05/30 11:02:19;;;;;;;13.70;5.00;;;;;;;27.66;33.89;99315.59;25082;1315;3054651;-67
2022/05/30 11:05:01;;;;;;;13.40;5.00;;;;;;;27.65;33.57;99327.50;24576;1315;3695984;-64
2022/05/30 11:08:05;;;;;;;11.40;4.90;;;;;;;27.59;33.49;99326.42;24990;1318;3058646;-64
2022/05/30 11:10:54;;;;;;;11.70;5.00;;;;;;;27.65;33.39;99316.08;25807;1318;3050082;-66
2022/05/30 11:13:42;;;;;;;15.20;5.50;;;;;;;27.68;33.67;99317.27;25137;1315;3053382;-69
2022/05/30 11:16:35;;;;;;;15.30;5.60;;;;;;;27.66;33.79;99313.64;25025;1315;3051215;-69
2022/05/30 11:19:33;;;;;;;13.70;5.20;;;;;;;27.77;34.10;99316.50;25142;1315;3068808;-67
2022/05/30 11:22:53;;;;;;;15.20;5.10;;;;;;;27.89;33.49;99311.21;25123;1315;3049581;-66
2022/05/30 11:25:41;;;;;;;11.50;4.80;;;;;;;27.98;33.27;99309.81;25184;1315;3055110;-66
2022/05/30 11:28:30;;;;;;;11.90;5.50;;;;;;;28.03;33.23;99310.74;25100;1315;3055253;-66
2022/05/30 11:31:08;;;;;;;17.20;5.60;;;;;;;28.08;33.48;99311.73;25083;1316;3058598;-67
2022/05/30 11:33:44;;;;;;;14.90;5.40;;;;;;;28.17;32.74;99309.44;25164;1315;3051598;-64
2022/05/30 11:36:23;;;;;;;11.50;5.60;;;;;;;28.17;32.60;99311.73;25096;1315;3055790;-67
2022/05/30 11:39:09;;;;;;;15.80;6.50;;;;;;;28.24;32.61;99310.27;25133;1315;3051804;-64
2022/05/30 11:41:59;;;;;;;8.70;4.70;;;;;;;28.34;32.94;99309.75;25108;1316;3070250;-66
2022/05/30 11:44:33;;;;;;;12.50;5.20;;;;;;;28.29;32.75;99310.27;25363;1315;3051133;-65
2022/05/30 11:47:01;;;;;;;;;;;;;;;28.36;32.88;99309.66;25729;1315;3051216;-65
2022/05/30 11:49:39;;;;;;;14.80;5.50;;;;;;;28.40;32.87;99305.38;25762;1315;3026877;-64
2022/05/30 11:52:39;;;;;;;17.60;6.70;;;;;;;28.45;33.33;99297.89;25414;1315;3058969;-66
2022/05/30 11:55:15;;;;;;;17.10;6.50;;;;;;;28.46;33.11;99296.90;25177;1315;3049665;-64
2022/05/30 11:58:11;;;;;;;17.20;5.50;;;;;;;28.39;32.72;99295.39;24950;1315;3052572;-65
2022/05/30 12:00:50;;;;;;;13.40;5.90;;;;;;;28.43;32.68;99292.27;25067;1315;3054612;-62
2022/05/30 12:03:37;;;;;;;17.40;5.50;;;;;;;28.44;32.63;99288.55;25121;1315;3069162;-63
2022/05/30 12:06:26;;;;;;;21.00;5.90;;;;;;;28.44;32.88;99282.98;25042;1315;3051624;-64
2022/05/30 12:09:40;;;;;;;11.70;4.50;;;;;;;28.60;32.62;99287.27;25118;1315;3055232;-65
2022/05/30 12:12:18;;;;;;;15.60;4.90;;;;;;;28.69;32.46;99282.46;25059;1315;3053675;-66
2022/05/30 12:15:07;;;;;;;12.10;4.90;;;;;;;28.80;32.15;99278.34;25115;1315;3056575;-66
2022/05/30 12:24:30;;;;;;;11.60;5.70;;;;;;;29.43;30.98;99277.23;25133;1315;3053512;-66
2022/05/30 12:28:25;;;;;;;11.80;5.70;;;;;;;29.50;31.06;99274.63;31378;1319;3026523;-65